createdAt,value
2023-03-11T00:01:29.584Z,65.75
2023-03-11T00:05:31.670Z,66.07
2023-03-11T00:09:29.462Z,66.00
2023-03-11T00:13:30.000Z,65.42
2023-03-11T00:17:29.481Z,65.15
2023-03-11T00:21:29.557Z,64.49
2023-03-11T00:25:32.219Z,65.24
2023-03-11T00:29:29.531Z,64.63
2023-03-11T00:33:29.746Z,65.41
2023-03-11T00:37:29.690Z,66.15
2023-03-11T00:41:29.700Z,66.61
2023-03-11T00:45:30.216Z,66.99
2023-03-11T00:53:29.551Z,66.80
2023-03-11T00:57:29.580Z,66.65
2023-03-11T01:01:29.685Z,67.14
2023-03-11T01:05:32.183Z,67.03
2023-03-11T01:09:29.689Z,66.90
2023-03-11T01:13:30.602Z,67.08
2023-03-11T01:17:29.722Z,67.39
2023-03-11T01:25:30.002Z,66.14
2023-03-11T01:29:29.646Z,66.76
2023-03-11T01:33:29.944Z,67.56
2023-03-11T01:37:29.725Z,67.39
2023-03-11T01:41:29.836Z,67.22
2023-03-11T01:45:40.274Z,67.64
2023-03-11T01:53:30.033Z,67.44
2023-03-11T01:57:30.169Z,67.46
2023-03-11T02:01:29.977Z,67.57
2023-03-11T02:05:29.779Z,67.89
2023-03-11T02:09:29.954Z,68.00
2023-03-11T02:13:31.495Z,67.98
2023-03-11T02:17:30.483Z,68.39
2023-03-11T02:25:38.521Z,68.15
2023-03-11T02:29:32.550Z,68.00
2023-03-11T02:37:30.053Z,67.95
2023-03-11T02:41:31.678Z,67.98
2023-03-11T02:45:30.713Z,67.60
2023-03-11T02:49:30.410Z,67.11
2023-03-11T02:53:35.162Z,67.08
2023-03-11T02:57:30.027Z,67.48
2023-03-11T03:01:30.007Z,67.33
2023-03-11T03:05:30.384Z,67.21
2023-03-11T03:09:30.394Z,67.18
2023-03-11T03:13:31.344Z,67.35
2023-03-11T03:17:30.125Z,67.52
2023-03-11T03:21:29.972Z,67.46
2023-03-11T03:29:30.191Z,67.55
2023-03-11T03:33:30.309Z,67.79
2023-03-11T03:37:32.486Z,67.41
2023-03-11T03:41:30.029Z,67.38
2023-03-11T03:45:30.304Z,67.35
2023-03-11T03:49:30.066Z,67.55
2023-03-11T03:53:30.177Z,67.48
2023-03-11T03:57:30.595Z,67.01
2023-03-11T04:01:30.183Z,67.40
2023-03-11T04:05:30.671Z,67.17
2023-03-11T04:09:30.157Z,67.00
2023-03-11T04:13:30.135Z,67.30
2023-03-11T04:17:30.239Z,67.96
2023-03-11T04:21:30.944Z,68.30
2023-03-11T04:25:30.192Z,68.31
2023-03-11T04:29:30.111Z,68.22
2023-03-11T04:33:30.413Z,68.38
2023-03-11T04:37:30.168Z,68.28
2023-03-11T04:45:30.370Z,68.14
2023-03-11T04:49:30.157Z,68.64
2023-03-11T04:53:30.439Z,68.49
2023-03-11T04:57:30.178Z,68.68
2023-03-11T05:05:30.366Z,68.67
2023-03-11T05:09:30.291Z,69.43
2023-03-11T05:13:30.390Z,68.90
2023-03-11T05:17:30.471Z,68.85
2023-03-11T05:21:30.452Z,68.95
2023-03-11T05:25:30.488Z,69.21
2023-03-11T05:33:34.338Z,69.33
2023-03-11T05:37:31.052Z,69.67
2023-03-11T05:41:30.693Z,69.81
2023-03-11T05:45:30.414Z,69.84
2023-03-11T05:49:30.566Z,69.75
2023-03-11T05:53:30.323Z,69.58
2023-03-11T05:57:30.478Z,69.69
2023-03-11T06:01:30.553Z,69.78
2023-03-11T06:05:30.624Z,69.90
2023-03-11T06:09:30.715Z,70.01
2023-03-11T06:13:30.662Z,69.67
2023-03-11T06:17:30.726Z,69.48
2023-03-11T06:21:30.918Z,69.95
2023-03-11T06:33:30.665Z,70.33
2023-03-11T06:37:30.482Z,70.17
2023-03-11T06:41:32.809Z,70.45
2023-03-11T06:45:30.484Z,70.21
2023-03-11T06:49:30.758Z,70.32
2023-03-11T06:57:30.694Z,70.31
2023-03-11T07:01:31.361Z,70.57
2023-03-11T07:05:30.648Z,70.72
2023-03-11T07:09:30.588Z,70.97
2023-03-11T07:13:31.143Z,71.19
2023-03-11T07:17:31.338Z,71.17
2023-03-11T07:21:31.851Z,70.86
2023-03-11T07:25:30.595Z,71.07
2023-03-11T07:29:30.688Z,71.34
2023-03-11T07:33:32.618Z,71.54
2023-03-11T07:37:30.871Z,71.81
2023-03-11T07:41:33.488Z,71.71
2023-03-11T07:45:30.636Z,71.82
2023-03-11T07:49:31.312Z,71.61
2023-03-11T07:53:31.060Z,71.56
2023-03-11T07:57:30.662Z,71.80
2023-03-11T08:01:35.348Z,71.79
2023-03-11T08:05:33.357Z,71.94
2023-03-11T08:09:30.785Z,71.79
2023-03-11T08:13:30.797Z,71.14
2023-03-11T08:17:30.892Z,70.44
2023-03-11T08:21:40.854Z,70.01
2023-03-11T08:25:30.876Z,69.65
2023-03-11T08:29:30.833Z,69.37
2023-03-11T08:33:30.964Z,69.08
2023-03-11T08:37:30.785Z,68.74
2023-03-11T08:41:31.192Z,68.69
2023-03-11T08:49:30.948Z,68.58
2023-03-11T08:53:30.773Z,68.56
2023-03-11T08:57:31.051Z,68.72
2023-03-11T09:01:30.923Z,68.60
2023-03-11T09:05:31.053Z,68.42
2023-03-11T09:09:31.385Z,67.96
2023-03-11T09:13:32.142Z,67.60
2023-03-11T09:17:30.962Z,68.04
2023-03-11T09:21:31.391Z,67.79
2023-03-11T09:25:30.875Z,67.98
2023-03-11T09:29:31.128Z,67.41
2023-03-11T09:33:30.943Z,67.64
2023-03-11T09:37:31.516Z,68.00
2023-03-11T09:41:55.237Z,67.60
2023-03-11T09:45:35.616Z,67.49
2023-03-11T09:49:41.608Z,67.21
2023-03-11T09:53:39.501Z,67.06
2023-03-11T09:57:33.016Z,66.49
2023-03-11T10:01:33.846Z,66.21
2023-03-11T10:05:32.224Z,66.45
2023-03-11T10:09:39.293Z,65.89
2023-03-11T10:13:39.165Z,65.53
2023-03-11T10:17:43.779Z,64.42
2023-03-11T10:21:40.638Z,64.79
2023-03-11T10:25:41.160Z,63.95
2023-03-11T10:29:39.644Z,64.26
2023-03-11T10:33:36.406Z,63.91
2023-03-11T10:37:48.316Z,64.06
2023-03-11T10:41:43.149Z,63.98
2023-03-11T10:45:36.536Z,62.53
2023-03-11T10:49:31.703Z,62.33
2023-03-11T10:53:31.120Z,61.64
2023-03-11T10:57:34.068Z,62.53
2023-03-11T11:01:31.945Z,61.79
2023-03-11T11:05:32.952Z,61.69
2023-03-11T11:09:31.862Z,59.82
2023-03-11T11:13:33.557Z,59.50
2023-03-11T11:17:33.094Z,59.32
2023-03-11T11:21:34.287Z,60.56
2023-03-11T11:25:34.436Z,59.62
2023-03-11T11:29:31.853Z,59.24
2023-03-11T11:33:33.019Z,59.14
2023-03-11T11:37:34.282Z,58.97
2023-03-11T11:41:35.502Z,58.39
2023-03-11T11:45:36.835Z,58.86
2023-03-11T11:49:34.091Z,58.64
2023-03-11T11:53:40.058Z,58.22
2023-03-11T11:57:31.676Z,57.94
2023-03-11T12:01:41.760Z,56.36
2023-03-11T12:05:37.657Z,55.05
2023-03-11T12:09:38.238Z,57.20
2023-03-11T12:13:45.868Z,55.80
2023-03-11T12:17:34.702Z,55.89
2023-03-11T12:21:47.102Z,56.02
2023-03-11T12:25:38.464Z,53.99
2023-03-11T12:29:35.485Z,54.59
2023-03-11T12:33:35.974Z,52.68
2023-03-11T12:37:32.064Z,54.66
2023-03-11T12:41:36.086Z,55.00
2023-03-11T12:45:49.484Z,55.60
2023-03-11T12:49:34.128Z,55.04
2023-03-11T12:53:42.771Z,54.54
2023-03-11T12:57:35.840Z,53.90
2023-03-11T13:01:46.781Z,54.98
2023-03-11T13:05:42.836Z,53.96
2023-03-11T13:09:31.941Z,53.19
2023-03-11T13:13:37.371Z,52.99
2023-03-11T13:17:31.658Z,52.92
2023-03-11T13:21:40.311Z,52.88
2023-03-11T13:25:35.835Z,53.23
2023-03-11T13:29:46.527Z,52.00
2023-03-11T13:37:39.648Z,52.16
2023-03-11T13:41:35.430Z,51.59
2023-03-11T13:45:34.715Z,52.01
2023-03-11T13:49:37.457Z,51.98
2023-03-11T13:53:37.255Z,49.81
2023-03-11T13:57:33.526Z,49.23
2023-03-11T14:01:31.934Z,50.39
2023-03-11T14:05:33.939Z,50.55
2023-03-11T14:09:31.760Z,49.49
2023-03-11T14:13:32.786Z,49.50
2023-03-11T14:17:32.218Z,49.24
2023-03-11T14:21:32.593Z,47.23
2023-03-11T14:25:35.376Z,50.23
2023-03-11T14:29:34.256Z,48.80
2023-03-11T14:34:14.386Z,48.83
2023-03-11T14:37:33.914Z,47.42
2023-03-11T14:41:33.186Z,48.21
2023-03-11T14:45:35.332Z,49.32
2023-03-11T14:49:32.301Z,49.81
2023-03-11T14:53:36.960Z,48.04
2023-03-11T14:57:38.166Z,48.93
2023-03-11T15:01:35.529Z,47.78
2023-03-11T15:05:38.776Z,49.42
2023-03-11T15:09:32.282Z,49.56
2023-03-11T15:13:32.738Z,49.69
2023-03-11T15:17:41.111Z,49.57
2023-03-11T15:21:32.222Z,48.75
2023-03-11T15:25:33.890Z,49.33
2023-03-11T15:29:33.746Z,49.04
2023-03-11T15:33:32.851Z,49.26
2023-03-11T15:37:32.885Z,47.98
2023-03-11T15:41:31.921Z,49.49
2023-03-11T15:45:32.030Z,48.45
2023-03-11T15:49:32.989Z,49.56
2023-03-11T15:53:31.990Z,49.29
2023-03-11T15:57:32.465Z,48.17
2023-03-11T16:01:32.246Z,49.48
2023-03-11T16:05:32.025Z,48.36
2023-03-11T16:13:32.139Z,48.43
2023-03-11T16:17:46.834Z,48.65
2023-03-11T16:21:35.857Z,49.09
2023-03-11T16:25:35.203Z,48.63
2023-03-11T16:29:32.572Z,49.40
2023-03-11T16:33:32.783Z,49.59
2023-03-11T16:37:32.157Z,48.47
2023-03-11T16:41:40.076Z,49.59
2023-03-11T16:45:33.156Z,49.19
2023-03-11T16:49:32.187Z,49.67
2023-03-11T16:53:32.407Z,50.08
2023-03-11T16:57:32.214Z,49.76
2023-03-11T17:01:38.074Z,50.39
2023-03-11T17:05:32.220Z,50.55
2023-03-11T17:09:33.536Z,50.44
2023-03-11T17:13:32.156Z,51.15
2023-03-11T17:17:32.283Z,51.78
2023-03-11T17:21:32.308Z,52.12
2023-03-11T17:25:32.285Z,54.65
2023-03-11T17:29:32.890Z,56.67
2023-03-11T17:33:32.438Z,56.34
2023-03-11T17:37:33.200Z,56.17
2023-03-11T17:41:32.333Z,57.66
2023-03-11T17:45:32.277Z,60.15
2023-03-11T17:49:32.310Z,61.06
2023-03-11T17:53:32.647Z,61.83
2023-03-11T18:01:32.430Z,61.67
2023-03-11T18:05:32.575Z,62.50
2023-03-11T18:09:32.442Z,62.48
2023-03-11T18:13:34.764Z,61.61
2023-03-11T18:17:33.823Z,61.21
2023-03-11T18:21:32.347Z,61.17
2023-03-11T18:25:32.368Z,60.94
2023-03-11T18:33:33.285Z,60.34
2023-03-11T18:37:32.570Z,60.89
2023-03-11T18:41:34.351Z,61.47
2023-03-11T18:45:32.958Z,60.99
2023-03-11T18:49:32.645Z,61.25
2023-03-11T18:53:32.550Z,62.40
2023-03-11T18:57:32.623Z,62.43
2023-03-11T19:01:33.408Z,63.61
2023-03-11T19:05:32.995Z,64.55
2023-03-11T19:09:32.598Z,64.31
2023-03-11T19:13:46.172Z,65.31
2023-03-11T19:17:32.508Z,65.59
2023-03-11T19:21:32.762Z,66.09
2023-03-11T19:25:33.257Z,66.45
2023-03-11T19:29:32.731Z,66.90
2023-03-11T19:33:32.764Z,67.58
2023-03-11T19:37:32.556Z,68.23
2023-03-11T19:41:32.682Z,68.46
2023-03-11T19:45:32.896Z,68.43
2023-03-11T19:49:32.690Z,68.93
2023-03-11T19:53:33.960Z,69.25
2023-03-11T19:57:32.628Z,69.39
2023-03-11T20:01:32.657Z,70.01
2023-03-11T20:05:34.990Z,70.08
2023-03-11T20:09:33.135Z,70.20
2023-03-11T20:17:32.794Z,71.76
2023-03-11T20:21:37.890Z,72.10
2023-03-11T20:25:34.014Z,72.94
2023-03-11T20:29:32.731Z,72.31
2023-03-11T20:33:33.044Z,73.06
2023-03-11T20:37:32.847Z,72.92
2023-03-11T20:41:34.775Z,73.66
2023-03-11T20:45:32.751Z,73.39
2023-03-11T20:49:32.849Z,74.17
2023-03-11T20:53:32.933Z,75.28
2023-03-11T20:57:33.529Z,74.71
2023-03-11T21:01:34.392Z,74.44
2023-03-11T21:05:35.714Z,72.73
2023-03-11T21:09:33.083Z,73.50
2023-03-11T21:13:34.901Z,73.62
2023-03-11T21:17:33.130Z,73.82
2023-03-11T21:21:33.655Z,72.92
2023-03-11T21:25:33.577Z,73.27
2023-03-11T21:29:33.100Z,73.19
2023-03-11T21:33:32.989Z,72.61
2023-03-11T21:37:33.072Z,73.08
2023-03-11T21:41:33.546Z,73.41
2023-03-11T21:45:33.124Z,73.91
2023-03-11T21:49:33.045Z,73.14
2023-03-11T21:53:33.705Z,74.00
2023-03-11T21:57:33.195Z,74.26
2023-03-11T22:01:33.647Z,73.94
2023-03-11T22:09:33.154Z,74.86
2023-03-11T22:13:33.210Z,75.02
2023-03-11T22:17:33.464Z,74.39
2023-03-11T22:21:33.047Z,74.86
2023-03-11T22:29:33.232Z,75.19
2023-03-11T22:33:33.510Z,75.48
2023-03-11T22:37:33.012Z,75.63
2023-03-11T22:41:33.278Z,75.46
2023-03-11T22:45:33.222Z,75.56
2023-03-11T22:49:33.594Z,75.73
2023-03-11T22:53:33.318Z,76.14
2023-03-11T22:57:37.602Z,76.40
2023-03-11T23:01:33.392Z,76.75
2023-03-11T23:05:39.729Z,75.92
2023-03-11T23:09:33.875Z,75.96
2023-03-11T23:13:34.825Z,76.47
2023-03-11T23:17:33.780Z,76.51
2023-03-11T23:21:34.108Z,76.73
2023-03-11T23:25:34.509Z,76.72
2023-03-11T23:33:33.940Z,76.51
2023-03-11T23:41:33.371Z,76.97
2023-03-11T23:45:33.219Z,76.79
2023-03-11T23:57:33.608Z,77.51
